Time;durP1;ratioP1;P1;durP2;ratioP2;P2;SDS_P1;SDS_P2;PMS_P1;PMS_P2;Temp;Humidity;BMP_temperature;BMP_pressure;BME280_temperature;BME280_humidity;BME280_pressure;Samples;Min_cycle;Max_cycle;Signal;HPM_P1;HPM_P2
2023/02/26 00:00:26;;;;;;;0.22;0.22;;;-1.30;99.90;;;;;;5039766;28;20115;-73
2023/02/26 00:02:51;;;;;;;0.20;0.20;;;-1.30;99.90;;;;;;5056571;28;20025;-73
2023/02/26 00:05:17;;;;;;;0.20;0.20;;;-1.40;99.90;;;;;;5057230;28;20024;-73
2023/02/26 00:07:42;;;;;;;0.22;0.22;;;-1.40;99.90;;;;;;5056971;28;20486;-73
2023/02/26 00:10:11;;;;;;;0.20;0.20;;;-1.50;99.90;;;;;;5056820;28;20129;-73
2023/02/26 00:12:39;;;;;;;0.30;0.30;;;-1.50;99.90;;;;;;5057305;28;20029;-73
2023/02/26 00:15:07;;;;;;;0.22;0.22;;;-1.60;99.90;;;;;;5057246;28;20478;-73
2023/02/26 00:17:54;;;;;;;0.30;0.30;;;-1.70;99.90;;;;;;5056894;28;20025;-73
2023/02/26 00:20:19;;;;;;;0.20;0.20;;;-1.80;99.90;;;;;;5057008;28;20021;-73
2023/02/26 00:22:45;;;;;;;0.22;0.22;;;-1.80;99.90;;;;;;5037994;28;20025;-73
2023/02/26 00:25:11;;;;;;;0.20;0.20;;;-1.80;99.90;;;;;;5057192;28;20060;-73
2023/02/26 00:27:37;;;;;;;0.20;0.20;;;-1.80;99.90;;;;;;5056564;28;20082;-73
2023/02/26 00:30:04;;;;;;;0.30;0.30;;;-1.80;99.90;;;;;;5041079;28;20044;-73
2023/02/26 00:32:33;;;;;;;0.30;0.30;;;-1.80;99.90;;;;;;5045303;28;20120;-73
2023/02/26 00:34:59;;;;;;;0.20;0.20;;;-1.80;99.90;;;;;;5038429;28;20025;-73
2023/02/26 00:37:47;;;;;;;0.20;0.20;;;-1.80;99.90;;;;;;5046351;28;20029;-73
2023/02/26 00:40:37;;;;;;;0.15;0.15;;;-1.80;99.90;;;;;;5037858;28;20040;-73
2023/02/26 00:43:05;;;;;;;0.20;0.20;;;-1.90;99.90;;;;;;5056657;28;20464;-73
2023/02/26 00:45:36;;;;;;;0.28;0.28;;;-1.90;99.90;;;;;;5055898;28;20092;-74
2023/02/26 00:48:26;;;;;;;0.20;0.20;;;-1.90;99.90;;;;;;5056699;28;20028;-73
2023/02/26 00:51:09;;;;;;;0.20;0.20;;;-2.00;99.90;;;;;;5055934;28;20079;-74
2023/02/26 00:53:50;;;;;;;0.10;0.10;;;-2.00;99.90;;;;;;5032562;28;20036;-73
2023/02/26 00:56:16;;;;;;;0.30;0.30;;;-2.10;99.90;;;;;;5035712;28;20021;-74
2023/02/26 00:58:41;;;;;;;0.20;0.20;;;-2.20;99.90;;;;;;5041941;28;20037;-73
2023/02/26 01:01:07;;;;;;;0.20;0.20;;;-2.20;99.90;;;;;;5038488;28;20029;-73
2023/02/26 01:03:33;;;;;;;0.20;0.20;;;-2.20;99.90;;;;;;5037354;28;20402;-73
2023/02/26 01:05:58;;;;;;;0.20;0.20;;;-2.30;99.90;;;;;;5040958;28;20049;-73
2023/02/26 01:08:32;;;;;;;0.20;0.20;;;-2.20;99.90;;;;;;5036447;28;20037;-73
2023/02/26 01:10:58;;;;;;;0.20;0.20;;;-2.20;99.90;;;;;;5023496;28;20033;-73
2023/02/26 01:13:24;;;;;;;0.20;0.20;;;-2.20;99.90;;;;;;5038166;28;20036;-74
2023/02/26 01:16:08;;;;;;;0.30;0.30;;;-2.10;99.90;;;;;;5055713;28;20031;-73
2023/02/26 01:18:59;;;;;;;0.20;0.20;;;-2.10;99.90;;;;;;5055906;28;20033;-73
2023/02/26 01:21:33;;;;;;;0.22;0.22;;;-2.10;99.90;;;;;;5062992;23;20041;-73
2023/02/26 01:24:02;;;;;;;0.22;0.22;;;-2.10;99.90;;;;;;5055542;28;20025;-73
2023/02/26 01:26:28;;;;;;;0.30;0.30;;;-2.20;99.90;;;;;;5055412;28;20020;-73
2023/02/26 01:28:54;;;;;;;0.28;0.28;;;-2.20;99.90;;;;;;5056349;28;20029;-73
2023/02/26 01:31:28;;;;;;;0.28;0.28;;;-2.20;99.90;;;;;;5037371;28;20017;-73
2023/02/26 01:34:01;;;;;;;0.20;0.20;;;-2.20;99.90;;;;;;5055589;28;20025;-73
2023/02/26 01:36:32;;;;;;;0.30;0.30;;;-2.30;99.90;;;;;;5055473;28;20031;-73
2023/02/26 01:39:01;;;;;;;0.20;0.20;;;-2.40;99.90;;;;;;5050536;28;20083;-73
2023/02/26 01:41:42;;;;;;;0.25;0.25;;;-2.40;99.90;;;;;;5055208;28;20021;-73
2023/02/26 01:44:22;;;;;;;0.20;0.20;;;-2.40;99.90;;;;;;5055562;28;20017;-73
2023/02/26 01:46:56;;;;;;;0.20;0.20;;;-2.50;99.90;;;;;;5055399;28;20017;-73
2023/02/26 01:49:22;;;;;;;0.20;0.20;;;-2.40;99.90;;;;;;5055079;28;20032;-74
2023/02/26 01:51:47;;;;;;;0.25;0.25;;;-2.50;99.90;;;;;;5046318;28;20025;-74
2023/02/26 01:54:15;;;;;;;0.20;0.20;;;-2.60;99.90;;;;;;5034356;28;20029;-73
2023/02/26 01:56:42;;;;;;;0.20;0.20;;;-2.70;99.90;;;;;;5021154;28;20417;-73
2023/02/26 01:59:10;;;;;;;0.30;0.30;;;-2.80;99.90;;;;;;5055619;28;20132;-73
2023/02/26 02:01:37;;;;;;;0.13;0.13;;;-2.70;99.90;;;;;;5054744;28;20421;-73
2023/02/26 02:04:06;;;;;;;0.30;0.30;;;-2.60;99.90;;;;;;5055164;28;20112;-73
2023/02/26 02:06:32;;;;;;;0.20;0.20;;;-2.60;99.90;;;;;;5054038;28;20067;-74
2023/02/26 02:08:57;;;;;;;0.20;0.20;;;-2.50;99.90;;;;;;5055374;28;20029;-73
2023/02/26 02:11:27;;;;;;;0.10;0.10;;;-2.50;99.90;;;;;;5054556;28;20075;-73
2023/02/26 02:14:26;;;;;;;0.20;0.20;;;-2.40;99.90;;;;;;5037172;28;20025;-73
2023/02/26 02:17:01;;;;;;;0.20;0.20;;;-2.50;99.90;;;;;;5055136;28;20028;-73
2023/02/26 02:20:05;;;;;;;0.30;0.30;;;-2.60;99.90;;;;;;5037107;28;20440;-73
2023/02/26 02:22:42;;;;;;;0.30;0.30;;;-2.50;99.90;;;;;;5034637;28;20049;-73
2023/02/26 02:25:39;;;;;;;0.20;0.20;;;-2.50;99.90;;;;;;5053662;28;20024;-73
2023/02/26 02:28:30;;;;;;;0.20;0.20;;;-2.50;99.90;;;;;;5033029;28;20044;-73
2023/02/26 02:31:08;;;;;;;0.20;0.20;;;-2.50;99.90;;;;;;5035712;28;20493;-73
2023/02/26 02:33:50;;;;;;;0.20;0.20;;;-2.60;99.90;;;;;;5034822;28;20037;-74
2023/02/26 02:36:43;;;;;;;0.20;0.20;;;-2.60;99.90;;;;;;5034470;28;20028;-74
2023/02/26 02:39:25;;;;;;;0.30;0.30;;;-2.70;99.90;;;;;;5034329;28;20087;-73
2023/02/26 02:41:56;;;;;;;0.30;0.30;;;-2.90;99.90;;;;;;5051632;28;20021;-73
2023/02/26 02:44:25;;;;;;;0.20;0.20;;;-2.90;99.90;;;;;;5054003;28;20021;-73
2023/02/26 02:46:54;;;;;;;0.30;0.30;;;-3.00;99.90;;;;;;5039753;28;20048;-73
2023/02/26 02:49:30;;;;;;;0.22;0.22;;;-2.90;99.90;;;;;;5016576;28;20021;-73
2023/02/26 02:52:10;;;;;;;0.20;0.20;;;-2.90;99.90;;;;;;5033717;28;20068;-73
2023/02/26 02:54:42;;;;;;;0.10;0.10;;;-3.00;99.90;;;;;;5016434;28;20049;-73
2023/02/26 02:57:20;;;;;;;0.20;0.20;;;-3.00;99.90;;;;;;5044069;28;20040;-73
2023/02/26 02:59:50;;;;;;;0.30;0.30;;;-2.90;99.90;;;;;;5038157;28;20108;-73
2023/02/26 03:02:47;;;;;;;0.30;0.30;;;-2.80;99.90;;;;;;5033741;28;20021;-73
2023/02/26 03:05:14;;;;;;;0.20;0.20;;;-2.70;99.90;;;;;;5032087;28;20494;-73
2023/02/26 03:07:59;;;;;;;0.15;0.15;;;-2.60;99.90;;;;;;5038017;28;20113;-74
2023/02/26 03:10:24;;;;;;;0.10;0.10;;;-2.60;99.90;;;;;;5043516;28;20367;-73
2023/02/26 03:12:50;;;;;;;0.20;0.20;;;-2.60;99.90;;;;;;5066046;22;20053;-74
2023/02/26 03:15:20;;;;;;;0.20;0.20;;;-2.70;99.90;;;;;;5057163;28;20025;-73
2023/02/26 03:17:58;;;;;;;0.22;0.22;;;-2.70;99.90;;;;;;5058316;28;20029;-73
2023/02/26 03:20:26;;;;;;;0.20;0.20;;;-2.80;99.90;;;;;;5058640;28;20394;-74
2023/02/26 03:22:59;;;;;;;0.22;0.22;;;-2.80;99.90;;;;;;5080645;22;20049;-75
2023/02/26 03:25:45;;;;;;;0.30;0.30;;;-2.80;99.90;;;;;;5058476;28;20025;-75
2023/02/26 03:28:31;;;;;;;0.20;0.20;;;-2.80;99.90;;;;;;5057960;28;20032;-75
2023/02/26 03:31:21;;;;;;;0.28;0.28;;;-2.80;99.90;;;;;;5046814;28;20059;-74
2023/02/26 03:33:56;;;;;;;0.30;0.30;;;-2.80;99.90;;;;;;5033394;28;20056;-74
2023/02/26 03:36:32;;;;;;;0.30;0.30;;;-2.80;99.90;;;;;;5053282;28;20537;-74
2023/02/26 03:39:05;;;;;;;0.20;0.20;;;-2.70;99.90;;;;;;5038115;28;20029;-75
2023/02/26 03:41:51;;;;;;;0.20;0.20;;;-2.70;99.90;;;;;;5034930;28;20026;-74
2023/02/26 03:44:28;;;;;;;0.20;0.20;;;-2.70;99.90;;;;;;5016705;28;20080;-74
2023/02/26 03:46:59;;;;;;;0.20;0.20;;;-2.70;99.90;;;;;;5028354;28;20367;-74
2023/02/26 03:49:59;;;;;;;0.30;0.30;;;-2.80;99.90;;;;;;5019667;28;20036;-75
2023/02/26 03:52:32;;;;;;;0.20;0.20;;;-2.70;99.90;;;;;;5035963;28;20044;-74
2023/02/26 03:55:07;;;;;;;0.20;0.20;;;-2.70;99.90;;;;;;5016673;28;20069;-75
2023/02/26 03:57:32;;;;;;;0.30;0.30;;;-2.70;99.90;;;;;;5017790;28;20060;-74
2023/02/26 03:59:58;;;;;;;0.20;0.20;;;-2.70;99.90;;;;;;5032090;28;20030;-74
2023/02/26 04:02:30;;;;;;;0.20;0.20;;;-2.70;99.90;;;;;;5052737;28;20017;-74
2023/02/26 04:05:05;;;;;;;0.20;0.20;;;-2.70;99.90;;;;;;5037165;28;20025;-74
2023/02/26 04:07:31;;;;;;;0.28;0.28;;;-2.70;99.90;;;;;;5037288;28;20453;-75
2023/02/26 04:09:56;;;;;;;0.22;0.22;;;-2.70;99.90;;;;;;5036814;28;20060;-74
2023/02/26 04:12:27;;;;;;;0.30;0.30;;;-2.70;99.90;;;;;;5036617;28;20022;-75
2023/02/26 04:14:54;;;;;;;0.20;0.20;;;-2.80;99.90;;;;;;5018829;28;20543;-75
2023/02/26 04:17:20;;;;;;;0.30;0.30;;;-2.90;99.90;;;;;;5036736;28;20033;-75
2023/02/26 04:19:45;;;;;;;0.20;0.20;;;-2.90;99.90;;;;;;5019473;28;20112;-75
2023/02/26 04:22:11;;;;;;;0.20;0.20;;;-2.90;99.90;;;;;;5036220;28;20037;-74
2023/02/26 04:24:36;;;;;;;0.20;0.20;;;-2.90;99.90;;;;;;5052136;28;20482;-75
2023/02/26 04:27:02;;;;;;;0.30;0.30;;;-2.90;99.90;;;;;;5036836;28;20022;-74
2023/02/26 04:29:28;;;;;;;0.20;0.20;;;-2.80;99.90;;;;;;5019087;28;20120;-74
2023/02/26 04:31:53;;;;;;;0.30;0.30;;;-2.70;99.90;;;;;;5037185;28;20028;-75
2023/02/26 04:34:19;;;;;;;0.30;0.30;;;-2.70;99.90;;;;;;5032648;28;20067;-74
2023/02/26 04:36:44;;;;;;;0.20;0.20;;;-2.80;99.90;;;;;;5017230;28;20034;-74
2023/02/26 04:39:10;;;;;;;0.20;0.20;;;-2.80;99.90;;;;;;5016264;28;20026;-75
2023/02/26 04:41:37;;;;;;;0.17;0.17;;;-2.80;99.90;;;;;;5034500;28;20025;-74
2023/02/26 04:44:06;;;;;;;0.30;0.30;;;-2.70;99.90;;;;;;5036229;28;20536;-74
2023/02/26 04:46:32;;;;;;;0.30;0.30;;;-2.70;99.90;;;;;;5036691;28;20110;-74
2023/02/26 04:49:03;;;;;;;0.20;0.20;;;-2.60;99.90;;;;;;5036396;28;20053;-74
2023/02/26 04:51:29;;;;;;;0.20;0.20;;;-2.70;99.90;;;;;;5035566;28;20025;-74
2023/02/26 04:53:55;;;;;;;0.30;0.30;;;-2.70;99.90;;;;;;5036945;28;20018;-75
2023/02/26 04:56:21;;;;;;;0.30;0.30;;;-2.70;99.90;;;;;;5035932;28;20163;-75
2023/02/26 04:58:46;;;;;;;0.20;0.20;;;-2.70;99.90;;;;;;5036401;28;20102;-74
2023/02/26 05:01:12;;;;;;;0.30;0.30;;;-2.70;99.90;;;;;;5017748;28;20034;-74
2023/02/26 05:03:38;;;;;;;0.30;0.30;;;-2.70;99.90;;;;;;5019035;28;20021;-75
2023/02/26 05:06:04;;;;;;;0.20;0.20;;;-2.70;99.90;;;;;;5035826;28;20017;-74
2023/02/26 05:08:29;;;;;;;0.20;0.20;;;-2.70;99.90;;;;;;5036057;28;20065;-74
2023/02/26 05:10:58;;;;;;;0.20;0.20;;;-2.70;99.90;;;;;;5036026;28;20030;-74
2023/02/26 05:13:23;;;;;;;0.20;0.20;;;-2.70;99.90;;;;;;5035643;28;20025;-74
2023/02/26 05:15:52;;;;;;;0.20;0.20;;;-2.70;99.90;;;;;;5051795;28;20388;-74
2023/02/26 05:18:18;;;;;;;0.20;0.20;;;-2.70;99.90;;;;;;5035565;28;20029;-74
2023/02/26 05:20:43;;;;;;;0.30;0.30;;;-2.70;99.90;;;;;;5035938;28;20036;-74
2023/02/26 05:23:09;;;;;;;0.10;0.10;;;-2.70;99.90;;;;;;5035054;28;20049;-74
2023/02/26 05:25:34;;;;;;;0.20;0.20;;;-2.60;99.90;;;;;;5035762;28;20017;-74
2023/02/26 05:28:00;;;;;;;0.30;0.30;;;-2.70;99.90;;;;;;5035365;28;20402;-74
2023/02/26 05:30:25;;;;;;;0.30;0.30;;;-2.70;99.90;;;;;;5019260;28;20037;-74
2023/02/26 05:32:51;;;;;;;0.20;0.20;;;-2.70;99.90;;;;;;4997795;28;20037;-74
2023/02/26 05:35:16;;;;;;;0.20;0.20;;;-2.70;99.90;;;;;;5016385;28;20026;-74
2023/02/26 05:37:42;;;;;;;0.20;0.20;;;-2.70;99.90;;;;;;5015564;28;20029;-74
2023/02/26 05:40:09;;;;;;;0.20;0.20;;;-2.70;99.90;;;;;;5022292;28;20494;-74
2023/02/26 05:42:35;;;;;;;0.20;0.20;;;-2.70;99.90;;;;;;5035365;28;20072;-74
2023/02/26 05:45:01;;;;;;;0.17;0.17;;;-2.70;99.90;;;;;;5014118;28;20022;-74
2023/02/26 05:47:26;;;;;;;0.25;0.25;;;-2.80;99.90;;;;;;5015810;28;20037;-74
2023/02/26 05:49:52;;;;;;;0.22;0.22;;;-2.80;99.90;;;;;;5015061;28;20401;-74
2023/02/26 05:52:18;;;;;;;0.20;0.20;;;-2.80;99.90;;;;;;5015855;28;20029;-74
2023/02/26 05:54:43;;;;;;;0.20;0.20;;;-2.90;99.90;;;;;;5015035;28;20395;-74
2023/02/26 05:57:09;;;;;;;0.22;0.22;;;-2.90;99.90;;;;;;5015574;28;20033;-74
2023/02/26 05:59:34;;;;;;;0.20;0.20;;;-2.80;99.90;;;;;;5022659;28;20112;-74
2023/02/26 06:02:00;;;;;;;0.20;0.20;;;-2.90;99.90;;;;;;5035363;28;20026;-74
2023/02/26 06:04:25;;;;;;;0.30;0.30;;;-2.90;99.90;;;;;;5034749;28;20036;-74
2023/02/26 06:06:51;;;;;;;0.30;0.30;;;-2.90;99.90;;;;;;5034866;28;20029;-74
2023/02/26 06:09:19;;;;;;;0.30;0.30;;;-2.90;99.90;;;;;;5034812;28;20021;-74
2023/02/26 06:11:45;;;;;;;0.20;0.20;;;-2.80;99.90;;;;;;5034905;28;20479;-74
2023/02/26 06:14:10;;;;;;;0.30;0.30;;;-2.80;99.90;;;;;;5035143;28;20060;-74
2023/02/26 06:16:36;;;;;;;0.30;0.30;;;-2.90;99.90;;;;;;5016387;28;20108;-74
2023/02/26 06:19:02;;;;;;;0.20;0.20;;;-2.90;99.90;;;;;;5034818;28;20079;-74
2023/02/26 06:21:27;;;;;;;0.20;0.20;;;-2.90;99.90;;;;;;5034198;28;20021;-74
2023/02/26 06:23:53;;;;;;;0.20;0.20;;;-3.00;99.90;;;;;;5028529;28;20390;-74
2023/02/26 06:26:18;;;;;;;0.20;0.20;;;-3.00;99.90;;;;;;5014794;28;20032;-74
2023/02/26 06:28:44;;;;;;;0.20;0.20;;;-2.90;99.90;;;;;;5017139;28;20471;-74
2023/02/26 06:31:09;;;;;;;0.20;0.20;;;-2.80;99.90;;;;;;5014588;28;20029;-74
2023/02/26 06:33:35;;;;;;;0.20;0.20;;;-2.80;99.90;;;;;;5014663;28;20052;-74
2023/02/26 06:36:01;;;;;;;0.20;0.20;;;-2.80;99.90;;;;;;5031575;28;20029;-74
2023/02/26 06:38:27;;;;;;;0.13;0.13;;;-2.90;99.90;;;;;;5049325;28;20044;-74
2023/02/26 06:40:53;;;;;;;0.20;0.20;;;-3.00;99.90;;;;;;5033298;28;20040;-74
2023/02/26 06:43:18;;;;;;;0.25;0.25;;;-3.00;99.90;;;;;;5034839;28;20029;-74
2023/02/26 06:45:45;;;;;;;0.20;0.20;;;-2.90;99.90;;;;;;5044371;28;20021;-74
2023/02/26 06:48:10;;;;;;;0.20;0.20;;;-2.90;99.90;;;;;;5014807;28;20037;-74
2023/02/26 06:50:36;;;;;;;0.30;0.30;;;-2.90;99.90;;;;;;5014417;28;20108;-74
2023/02/26 06:53:01;;;;;;;0.20;0.20;;;-2.80;99.90;;;;;;5014809;28;20112;-74
2023/02/26 06:55:27;;;;;;;0.20;0.20;;;-2.80;99.90;;;;;;5014707;28;20030;-74
2023/02/26 06:57:54;;;;;;;0.20;0.20;;;-2.70;99.90;;;;;;5004644;28;20025;-74
2023/02/26 07:00:20;;;;;;;0.20;0.20;;;-2.70;99.90;;;;;;5034352;28;20030;-74
2023/02/26 07:02:45;;;;;;;0.20;0.20;;;-2.60;99.90;;;;;;5033852;28;20025;-74
2023/02/26 07:05:11;;;;;;;0.20;0.20;;;-2.60;99.90;;;;;;5034039;28;20021;-74
2023/02/26 07:07:37;;;;;;;0.20;0.20;;;-2.50;99.90;;;;;;5033956;28;20387;-74
2023/02/26 07:10:03;;;;;;;0.20;0.20;;;-2.40;99.90;;;;;;5017431;28;20036;-74
2023/02/26 07:12:28;;;;;;;0.20;0.20;;;-2.40;99.90;;;;;;5034007;28;20025;-74
2023/02/26 07:14:54;;;;;;;0.20;0.20;;;-2.30;99.90;;;;;;5019516;28;20034;-73
2023/02/26 07:17:19;;;;;;;0.10;0.10;;;-2.20;99.90;;;;;;5018220;28;20065;-74
2023/02/26 07:19:46;;;;;;;0.30;0.30;;;-2.10;99.90;;;;;;5021557;28;20099;-73
2023/02/26 07:22:12;;;;;;;0.20;0.20;;;-2.00;99.90;;;;;;5026375;28;20072;-74
2023/02/26 07:24:38;;;;;;;0.20;0.20;;;-2.00;99.90;;;;;;5017963;28;20495;-74
2023/02/26 07:27:03;;;;;;;0.20;0.20;;;-1.80;99.90;;;;;;5027014;28;20053;-74
2023/02/26 07:29:29;;;;;;;0.20;0.20;;;-1.80;99.90;;;;;;5005259;28;20029;-74
2023/02/26 07:31:54;;;;;;;0.20;0.20;;;-1.60;99.90;;;;;;5050139;23;20394;-74
2023/02/26 07:34:20;;;;;;;0.20;0.20;;;-1.60;99.90;;;;;;5044074;28;20025;-74
2023/02/26 07:36:45;;;;;;;0.20;0.20;;;-1.40;99.90;;;;;;5048649;28;20032;-73
2023/02/26 07:39:11;;;;;;;0.20;0.20;;;-1.30;99.90;;;;;;5041003;28;20029;-75
2023/02/26 07:41:36;;;;;;;0.20;0.20;;;-1.20;99.90;;;;;;5027092;28;20021;-75
2023/02/26 07:44:02;;;;;;;0.20;0.20;;;-1.10;99.90;;;;;;5047170;28;20757;-75
2023/02/26 07:46:28;;;;;;;0.15;0.15;;;-1.00;99.90;;;;;;5034684;28;20497;-75
2023/02/26 07:48:53;;;;;;;0.20;0.20;;;-0.80;99.90;;;;;;5043992;28;20115;-75
2023/02/26 07:51:19;;;;;;;0.20;0.20;;;-0.80;99.90;;;;;;5037502;28;20048;-73
2023/02/26 07:53:44;;;;;;;0.20;0.20;;;-0.60;99.90;;;;;;5055313;28;20033;-74
2023/02/26 07:56:10;;;;;;;0.30;0.30;;;-0.50;99.90;;;;;;5034365;28;20037;-74
2023/02/26 07:58:37;;;;;;;0.30;0.30;;;-0.40;99.90;;;;;;5048974;28;20324;-74
2023/02/26 08:01:03;;;;;;;0.20;0.20;;;-0.30;99.90;;;;;;5032882;28;20125;-75
2023/02/26 08:03:31;;;;;;;0.20;0.20;;;-0.10;99.90;;;;;;5050338;28;20057;-76
2023/02/26 08:05:59;;;;;;;0.20;0.20;;;-0.10;99.90;;;;;;5037006;28;20032;-75
2023/02/26 08:08:25;;;;;;;0.20;0.20;;;0.00;99.90;;;;;;5050355;28;20104;-75
2023/02/26 08:10:51;;;;;;;0.20;0.20;;;0.00;99.90;;;;;;5054749;28;20486;-74
2023/02/26 08:13:16;;;;;;;0.20;0.20;;;0.10;99.90;;;;;;5057249;28;20029;-74
2023/02/26 08:15:42;;;;;;;0.25;0.25;;;0.20;99.90;;;;;;5056343;28;20025;-74
2023/02/26 08:18:09;;;;;;;0.20;0.20;;;0.30;99.90;;;;;;5039617;28;20039;-74
2023/02/26 08:20:34;;;;;;;0.22;0.22;;;0.40;99.90;;;;;;5038386;28;20025;-74
2023/02/26 08:23:00;;;;;;;0.20;0.20;;;0.40;99.90;;;;;;5056844;28;20401;-74
2023/02/26 08:25:26;;;;;;;0.20;0.20;;;0.50;99.90;;;;;;5056419;28;20033;-74
2023/02/26 08:27:51;;;;;;;0.10;0.10;;;0.60;99.90;;;;;;5030658;28;20112;-74
2023/02/26 08:30:19;;;;;;;0.22;0.22;;;0.60;99.90;;;;;;5049233;28;20060;-73
2023/02/26 08:32:45;;;;;;;0.30;0.30;;;0.90;99.90;;;;;;5038044;28;20044;-73
2023/02/26 08:35:14;;;;;;;0.22;0.22;;;0.90;99.90;;;;;;5056865;28;20024;-73
2023/02/26 08:37:39;;;;;;;0.20;0.20;;;0.90;99.90;;;;;;5056063;28;20086;-74
2023/02/26 08:40:07;;;;;;;0.30;0.30;;;1.00;99.90;;;;;;5056817;28;20029;-74
2023/02/26 08:42:33;;;;;;;0.20;0.20;;;1.10;99.90;;;;;;5056129;28;20010;-74
2023/02/26 08:44:59;;;;;;;0.30;0.30;;;1.20;99.90;;;;;;5056714;28;20028;-74
2023/02/26 08:47:27;;;;;;;0.30;0.30;;;1.40;99.90;;;;;;5056121;28;20483;-74
2023/02/26 08:49:52;;;;;;;0.20;0.20;;;1.50;99.90;;;;;;5039030;28;20043;-75
2023/02/26 08:52:19;;;;;;;0.20;0.20;;;1.50;99.90;;;;;;5056287;28;20473;-75
2023/02/26 08:54:44;;;;;;;0.20;0.20;;;1.50;99.90;;;;;;5056761;28;20098;-74
2023/02/26 08:57:13;;;;;;;0.30;0.30;;;1.70;99.90;;;;;;5056192;28;20602;-75
2023/02/26 08:59:38;;;;;;;0.10;0.10;;;1.80;99.90;;;;;;5055896;28;20100;-76
2023/02/26 09:02:04;;;;;;;0.20;0.20;;;1.90;99.90;;;;;;5055842;28;20592;-75
2023/02/26 09:04:29;;;;;;;0.30;0.30;;;1.90;99.90;;;;;;5056102;28;20028;-74
2023/02/26 09:06:55;;;;;;;0.20;0.20;;;2.00;99.90;;;;;;5057233;28;20060;-75
2023/02/26 09:09:21;;;;;;;0.15;0.15;;;2.10;99.90;;;;;;5055915;28;20021;-75
2023/02/26 09:11:46;;;;;;;0.20;0.20;;;2.10;99.90;;;;;;5056223;28;20025;-75
2023/02/26 09:14:13;;;;;;;0.20;0.20;;;2.40;99.90;;;;;;5055984;28;20025;-74
2023/02/26 09:16:38;;;;;;;0.20;0.20;;;2.60;99.90;;;;;;5056219;28;20048;-75
2023/02/26 09:19:08;;;;;;;0.20;0.20;;;2.60;99.90;;;;;;5055827;28;20021;-76
2023/02/26 09:21:34;;;;;;;0.20;0.20;;;2.70;99.90;;;;;;5055714;28;20024;-75
2023/02/26 09:24:00;;;;;;;0.10;0.10;;;2.70;99.90;;;;;;5038408;28;20071;-75
2023/02/26 09:26:25;;;;;;;0.20;0.20;;;2.80;99.90;;;;;;5055557;28;20021;-75
2023/02/26 09:28:51;;;;;;;0.20;0.20;;;3.00;99.90;;;;;;5055604;28;20025;-76
2023/02/26 09:31:17;;;;;;;0.17;0.17;;;3.10;99.90;;;;;;5055574;28;20060;-77
2023/02/26 09:33:43;;;;;;;0.20;0.20;;;3.30;99.90;;;;;;5037707;28;20037;-76
2023/02/26 09:36:08;;;;;;;0.20;0.20;;;3.50;99.90;;;;;;5054732;28;20563;-77
2023/02/26 09:38:34;;;;;;;0.20;0.20;;;3.50;99.90;;;;;;5055915;28;20029;-76
2023/02/26 09:41:07;;;;;;;0.20;0.20;;;3.30;99.90;;;;;;5055360;28;20025;-76
2023/02/26 09:44:02;;;;;;;0.20;0.20;;;3.30;99.90;;;;;;5054370;28;20036;-76
2023/02/26 09:46:31;;;;;;;0.20;0.20;;;3.30;99.90;;;;;;5055441;28;20078;-76
2023/02/26 09:49:11;;;;;;;0.20;0.20;;;3.50;99.90;;;;;;5055380;28;20075;-76
2023/02/26 09:51:37;;;;;;;0.20;0.20;;;3.50;99.90;;;;;;5055000;28;20028;-76
2023/02/26 09:54:16;;;;;;;0.13;0.13;;;3.60;99.90;;;;;;5055024;28;20024;-76
2023/02/26 09:56:43;;;;;;;0.30;0.30;;;3.70;99.90;;;;;;5054745;28;20151;-76
2023/02/26 09:59:09;;;;;;;0.20;0.20;;;3.70;99.90;;;;;;5055441;28;20398;-76
2023/02/26 10:01:54;;;;;;;0.20;0.20;;;3.80;99.90;;;;;;5054417;28;20029;-76
2023/02/26 10:04:45;;;;;;;0.20;0.20;;;3.80;99.90;;;;;;5054880;28;20028;-74
2023/02/26 10:07:46;;;;;;;0.20;0.20;;;3.70;99.90;;;;;;5030647;28;20506;-76
2023/02/26 10:10:24;;;;;;;0.20;0.20;;;3.80;99.90;;;;;;5035403;28;20033;-76
2023/02/26 10:12:51;;;;;;;0.20;0.20;;;3.80;99.90;;;;;;5034042;28;20574;-76
2023/02/26 10:15:27;;;;;;;0.20;0.20;;;3.90;99.90;;;;;;5034421;28;20159;-76
2023/02/26 10:18:16;;;;;;;0.10;0.10;;;4.00;99.90;;;;;;5035388;28;20018;-76
2023/02/26 10:21:17;;;;;;;0.20;0.20;;;4.10;99.90;;;;;;5017135;28;20032;-76
2023/02/26 10:23:55;;;;;;;0.30;0.30;;;3.90;99.90;;;;;;5040691;28;20029;-76
2023/02/26 10:26:33;;;;;;;0.30;0.30;;;4.00;99.90;;;;;;5036656;28;20028;-76
2023/02/26 10:29:10;;;;;;;0.17;0.17;;;4.10;99.90;;;;;;5036075;28;20051;-76
2023/02/26 10:32:00;;;;;;;0.20;0.20;;;4.20;99.90;;;;;;5036655;28;20037;-76
2023/02/26 10:34:40;;;;;;;0.20;0.20;;;4.40;99.90;;;;;;5049228;28;20417;-76
2023/02/26 10:37:33;;;;;;;0.20;0.20;;;4.30;99.90;;;;;;5017381;28;20025;-76
2023/02/26 10:40:18;;;;;;;0.17;0.17;;;4.40;99.90;;;;;;5034790;28;20026;-76
2023/02/26 10:42:55;;;;;;;0.22;0.22;;;4.50;99.90;;;;;;5029591;28;20456;-76
2023/02/26 10:45:41;;;;;;;0.20;0.20;;;4.60;99.90;;;;;;5034481;28;20434;-77
2023/02/26 10:48:41;;;;;;;0.30;0.30;;;4.50;99.90;;;;;;5054721;28;20059;-76
2023/02/26 10:51:17;;;;;;;0.10;0.10;;;4.50;99.90;;;;;;5054205;28;20385;-76
2023/02/26 10:53:53;;;;;;;0.20;0.20;;;4.60;99.90;;;;;;5054286;28;20029;-76
2023/02/26 10:56:28;;;;;;;0.20;0.20;;;4.70;99.90;;;;;;5054479;28;20036;-75
2023/02/26 10:58:54;;;;;;;0.20;0.20;;;4.70;99.90;;;;;;5055280;28;20057;-76
2023/02/26 11:01:22;;;;;;;0.30;0.30;;;4.80;99.90;;;;;;5035670;28;20048;-75
2023/02/26 11:03:53;;;;;;;0.20;0.20;;;4.80;99.90;;;;;;5052387;28;20021;-76
2023/02/26 11:06:23;;;;;;;0.20;0.20;;;5.00;99.90;;;;;;5054091;28;20029;-75
2023/02/26 11:08:53;;;;;;;0.20;0.20;;;5.10;99.90;;;;;;5035840;28;20021;-74
2023/02/26 11:11:45;;;;;;;0.20;0.20;;;5.10;99.90;;;;;;5053210;28;20029;-74
2023/02/26 11:14:11;;;;;;;0.20;0.20;;;5.20;99.90;;;;;;5054299;28;20444;-74
2023/02/26 11:16:57;;;;;;;0.20;0.20;;;5.20;99.90;;;;;;5034991;28;20025;-73
2023/02/26 11:19:35;;;;;;;0.20;0.20;;;5.20;99.90;;;;;;5033615;28;20034;-73
2023/02/26 11:22:03;;;;;;;0.22;0.22;;;5.30;99.90;;;;;;5033997;28;20394;-74
2023/02/26 11:24:41;;;;;;;0.30;0.30;;;5.60;99.90;;;;;;5035089;28;20056;-73
2023/02/26 11:27:18;;;;;;;0.20;0.20;;;5.70;99.90;;;;;;5037995;28;20556;-73
2023/02/26 11:29:52;;;;;;;0.28;0.28;;;5.70;99.90;;;;;;5020484;28;20116;-73
2023/02/26 11:32:35;;;;;;;0.20;0.20;;;5.40;99.90;;;;;;5037423;28;20506;-73
2023/02/26 11:35:02;;;;;;;0.30;0.30;;;5.00;99.90;;;;;;5037700;28;20033;-73
2023/02/26 11:37:32;;;;;;;0.20;0.20;;;5.00;99.90;;;;;;5037906;28;20079;-73
2023/02/26 11:40:14;;;;;;;0.20;0.20;;;5.40;99.90;;;;;;5019507;28;20037;-73
2023/02/26 11:42:48;;;;;;;0.30;0.30;;;5.70;99.90;;;;;;5040409;28;20524;-73
2023/02/26 11:45:17;;;;;;;0.17;0.17;;;6.00;99.90;;;;;;5057348;28;20017;-73
2023/02/26 11:47:42;;;;;;;0.20;0.20;;;5.60;99.90;;;;;;5057844;28;20021;-74
2023/02/26 11:50:21;;;;;;;0.20;0.20;;;5.20;99.90;;;;;;5041744;28;20040;-74
2023/02/26 11:52:54;;;;;;;0.20;0.20;;;5.10;99.90;;;;;;5035938;28;20052;-74
2023/02/26 11:55:27;;;;;;;0.20;0.20;;;5.10;99.90;;;;;;5026926;28;20033;-72
2023/02/26 11:57:54;;;;;;;0.20;0.20;;;5.40;99.90;;;;;;5051862;28;20057;-73
2023/02/26 12:00:39;;;;;;;0.20;0.20;;;6.00;99.90;;;;;;5057282;28;20388;-72
2023/02/26 12:03:14;;;;;;;0.22;0.22;;;6.30;99.90;;;;;;5057422;28;20425;-73
2023/02/26 12:05:40;;;;;;;0.20;0.20;;;6.20;99.90;;;;;;5057521;28;20013;-72
2023/02/26 12:08:18;;;;;;;0.30;0.30;;;6.10;99.90;;;;;;5039000;28;20047;-71
2023/02/26 12:10:59;;;;;;;0.22;0.22;;;5.90;99.90;;;;;;5036703;28;20026;-72
2023/02/26 12:13:49;;;;;;;0.20;0.20;;;5.80;99.90;;;;;;5047718;28;20044;-73
2023/02/26 12:16:20;;;;;;;0.20;0.20;;;5.80;99.90;;;;;;5055749;28;20070;-72
2023/02/26 12:18:49;;;;;;;0.20;0.20;;;5.60;99.90;;;;;;5057031;28;20025;-72
2023/02/26 12:21:37;;;;;;;0.20;0.20;;;5.70;99.90;;;;;;5056580;28;20025;-72
2023/02/26 12:24:40;;;;;;;0.22;0.22;;;5.80;99.90;;;;;;5057037;28;20027;-72
2023/02/26 12:27:35;;;;;;;0.20;0.20;;;6.50;99.90;;;;;;5038702;28;20098;-72
2023/02/26 12:30:24;;;;;;;0.20;0.20;;;7.40;99.90;;;;;;5056518;28;20546;-72
2023/02/26 12:32:57;;;;;;;0.20;0.20;;;7.60;99.90;;;;;;5056226;28;20064;-72
2023/02/26 12:35:46;;;;;;;0.20;0.20;;;7.40;99.90;;;;;;5038889;28;20049;-72
2023/02/26 12:38:14;;;;;;;0.22;0.22;;;7.30;99.90;;;;;;5055929;28;20118;-72
2023/02/26 12:41:01;;;;;;;0.20;0.20;;;6.70;99.90;;;;;;5056431;28;20105;-72
2023/02/26 12:43:53;;;;;;;0.20;0.20;;;6.40;99.90;;;;;;5053780;28;20017;-71
2023/02/26 12:46:57;;;;;;;0.20;0.20;;;6.00;99.90;;;;;;5043499;28;20021;-72
2023/02/26 12:49:41;;;;;;;0.20;0.20;;;6.30;99.90;;;;;;5056202;28;20041;-73
2023/02/26 12:52:32;;;;;;;0.20;0.20;;;6.40;99.90;;;;;;5047563;28;20544;-73
2023/02/26 12:55:13;;;;;;;0.20;0.20;;;7.00;99.90;;;;;;5036191;28;20037;-72
2023/02/26 12:57:55;;;;;;;0.20;0.20;;;7.40;99.90;;;;;;5042932;28;20087;-73
2023/02/26 13:00:54;;;;;;;0.20;0.20;;;8.00;99.90;;;;;;5056013;28;20390;-73
2023/02/26 13:03:48;;;;;;;0.20;0.20;;;9.30;99.90;;;;;;5055620;28;20021;-73
2023/02/26 13:06:23;;;;;;;;;;;9.80;99.90;;;;;;5038946;28;20394;-73
2023/02/26 13:08:57;;;;;;;0.20;0.20;;;9.40;99.90;;;;;;5056059;28;19912;-73
2023/02/26 13:11:49;;;;;;;0.20;0.20;;;9.90;99.90;;;;;;5055512;28;20414;-72
2023/02/26 13:14:34;;;;;;;0.20;0.20;;;10.30;99.90;;;;;;5055790;28;20425;-72